Time;durP1;ratioP1;P1;durP2;ratioP2;P2;SDS_P1;SDS_P2;PMS_P1;PMS_P2;Temp;Humidity;BMP_temperature;BMP_pressure;BME280_temperature;BME280_humidity;BME280_pressure;Samples;Min_cycle;Max_cycle;Signal;HPM_P1;HPM_P2
2022/06/12 00:00:27;;;;;;;;;;;12.90;99.00;;;;;;4994485;28;20277;-73
2022/06/12 00:02:54;;;;;;;;;;;12.90;99.80;;;;;;4994213;28;20012;-74
2022/06/12 00:05:22;;;;;;;;;;;13.00;98.90;;;;;;4994584;28;19989;-74
2022/06/12 00:07:49;;;;;;;;;;;13.00;98.90;;;;;;4993824;28;19918;-74
2022/06/12 00:10:16;;;;;;;;;;;13.10;98.50;;;;;;4994164;28;19910;-74
2022/06/12 00:12:44;;;;;;;;;;;13.20;98.80;;;;;;4994156;28;19909;-74
2022/06/12 00:15:12;;;;;;;;;;;13.20;98.40;;;;;;4994194;28;19916;-74
2022/06/12 00:17:41;;;;;;;;;;;13.20;98.40;;;;;;4993221;28;19910;-74
2022/06/12 00:20:08;;;;;;;;;;;13.30;98.40;;;;;;4993684;28;20365;-74
2022/06/12 00:22:35;;;;;;;;;;;13.30;98.80;;;;;;5008984;28;20405;-74
2022/06/12 00:25:03;;;;;;;;;;;13.30;99.10;;;;;;4993995;28;19910;-75
2022/06/12 00:27:30;;;;;;;;;;;13.40;98.50;;;;;;4993969;28;20016;-73
2022/06/12 00:29:57;;;;;;;;;;;13.30;98.60;;;;;;4993834;28;19956;-73
2022/06/12 00:32:29;;;;;;;;;;;13.30;98.60;;;;;;4993345;28;19910;-74
2022/06/12 00:34:56;;;;;;;;;;;13.40;99.10;;;;;;4993616;28;20284;-74
2022/06/12 00:37:23;;;;;;;;;;;13.50;99.10;;;;;;4993761;28;19948;-74
2022/06/12 00:39:51;;;;;;;;;;;13.60;98.50;;;;;;4993583;28;20278;-75
2022/06/12 00:42:29;;;;;;;;;;;13.70;98.00;;;;;;4993952;28;19914;-75
2022/06/12 00:44:57;;;;;;;;;;;13.70;98.00;;;;;;4993740;28;20342;-77
2022/06/12 00:47:23;;;;;;;;;;;13.80;97.90;;;;;;4992926;28;20028;-76
2022/06/12 00:49:56;;;;;;;;;;;13.80;98.30;;;;;;4993381;28;19926;-74
2022/06/12 00:52:35;;;;;;;;;;;13.90;98.10;;;;;;4993339;28;19917;-76
2022/06/12 00:55:31;;;;;;;;;;;13.90;97.80;;;;;;4993596;28;19914;-77
2022/06/12 00:58:01;;;;;;;;;;;14.00;97.70;;;;;;4984815;28;19909;-77
2022/06/12 01:00:28;;;;;;;;;;;14.10;98.40;;;;;;4993523;28;19921;-77
2022/06/12 01:02:57;;;;;;;;;;;14.30;97.60;;;;;;4993374;28;19917;-77
2022/06/12 01:08:09;;;;;;;;;;;14.90;96.90;;;;;;4993590;28;19992;-77
2022/06/12 01:10:37;;;;;;;;;;;15.10;96.50;;;;;;4993234;28;19936;-76
2022/06/12 01:13:10;;;;;;;;;;;15.40;97.10;;;;;;4993246;28;19945;-77
2022/06/12 01:15:41;;;;;;;;;;;15.50;96.00;;;;;;4993245;28;19910;-74
2022/06/12 01:18:10;;;;;;;;;;;15.50;96.90;;;;;;4993422;28;20293;-74
2022/06/12 01:21:02;;;;;;;;;;;15.50;96.30;;;;;;4995743;28;19932;-74
2022/06/12 01:23:54;;;;;;;;;;;15.50;96.30;;;;;;4981286;28;20340;-75
2022/06/12 01:26:41;;;;;;;;;;;15.40;96.20;;;;;;4997050;28;20428;-73
2022/06/12 01:29:12;;;;;;;;;;;15.30;96.40;;;;;;4996774;28;19910;-74
2022/06/12 01:32:04;;;;;;;;;;;15.10;96.70;;;;;;4996763;28;19910;-78
2022/06/12 01:34:34;;;;;;;;;;;15.10;96.90;;;;;;4994669;28;20122;-77
2022/06/12 01:37:09;;;;;;;;;;;15.10;96.80;;;;;;4996875;28;19914;-76
2022/06/12 01:39:39;;;;;;;;;;;15.10;96.60;;;;;;4996575;28;19913;-77
2022/06/12 01:42:12;;;;;;;;;;;15.10;96.90;;;;;;4996693;28;19932;-77
2022/06/12 01:44:51;;;;;;;;;;;15.10;96.90;;;;;;4996690;28;20000;-77
2022/06/12 01:47:24;;;;;;;;;;;15.10;96.60;;;;;;5011506;28;19975;-77
2022/06/12 01:50:01;;;;;;;;;;;15.10;96.80;;;;;;4995969;28;19910;-77
2022/06/12 01:52:36;;;;;;;;;;;15.10;96.60;;;;;;4996371;28;19930;-77
2022/06/12 01:55:13;;;;;;;;;;;15.10;96.50;;;;;;4996381;28;19910;-76
2022/06/12 01:58:06;;;;;;;;;;;15.10;96.70;;;;;;4996336;28;19910;-74
2022/06/12 02:00:33;;;;;;;;;;;15.10;96.80;;;;;;4994904;28;19945;-74
2022/06/12 02:03:05;;;;;;;;;;;15.10;96.80;;;;;;4996477;28;19916;-74
2022/06/12 02:05:35;;;;;;;;;;;15.10;96.80;;;;;;4996068;28;19940;-74
2022/06/12 02:08:13;;;;;;;;;;;15.10;96.80;;;;;;4996164;28;19914;-74
2022/06/12 02:10:46;;;;;;;;;;;15.10;96.60;;;;;;4996332;28;19914;-76
2022/06/12 02:13:22;;;;;;;;;;;15.10;96.50;;;;;;4996274;28;19909;-75
2022/06/12 02:15:53;;;;;;;;;;;15.20;96.70;;;;;;4996081;28;19910;-74
2022/06/12 02:18:28;;;;;;;;;;;15.20;96.80;;;;;;4996201;28;20324;-74
2022/06/12 02:20:59;;;;;;;;;;;15.20;96.00;;;;;;4995896;28;19933;-73
2022/06/12 02:23:29;;;;;;;;;;;15.30;95.60;;;;;;4996155;28;19914;-74
2022/06/12 02:25:57;;;;;;;;;;;15.30;95.60;;;;;;4996097;28;20405;-75
2022/06/12 02:28:26;;;;;;;;;;;15.40;95.60;;;;;;4996154;28;20309;-74
2022/06/12 02:30:57;;;;;;;;;;;15.40;95.60;;;;;;4994935;28;19917;-75
2022/06/12 02:33:29;;;;;;;;;;;15.30;95.80;;;;;;4995928;28;19929;-73
2022/06/12 02:36:01;;;;;;;;;;;15.30;95.80;;;;;;4995898;28;19910;-74
2022/06/12 02:38:39;;;;;;;;;;;15.30;96.10;;;;;;4995900;28;19914;-76
2022/06/12 02:41:14;;;;;;;;;;;15.40;96.20;;;;;;4995709;28;20276;-74
2022/06/12 02:43:43;;;;;;;;;;;15.40;95.60;;;;;;4995670;28;19956;-73
2022/06/12 02:46:15;;;;;;;;;;;15.40;96.00;;;;;;4995258;28;19914;-77
2022/06/12 02:48:42;;;;;;;;;;;15.30;95.90;;;;;;4995487;28;19956;-74
2022/06/12 02:51:15;;;;;;;;;;;15.40;96.00;;;;;;4995461;28;19916;-76
2022/06/12 02:53:41;;;;;;;;;;;15.40;95.40;;;;;;4995306;28;19922;-76
2022/06/12 02:56:13;;;;;;;;;;;15.40;95.10;;;;;;4995525;28;19953;-78
2022/06/12 02:58:59;;;;;;;;;;;15.40;95.60;;;;;;4995370;28;19910;-78
2022/06/12 03:01:31;;;;;;;;;;;15.50;95.80;;;;;;4995355;28;19910;-78
2022/06/12 03:04:05;;;;;;;;;;;15.60;95.50;;;;;;4995309;28;20332;-78
2022/06/12 03:06:32;;;;;;;;;;;15.60;95.30;;;;;;4995218;28;20013;-78
2022/06/12 03:08:59;;;;;;;;;;;15.60;95.20;;;;;;4995056;28;20013;-78
2022/06/12 03:11:27;;;;;;;;;;;15.60;95.10;;;;;;4995128;28;19985;-78
2022/06/12 03:13:55;;;;;;;;;;;15.60;95.40;;;;;;4994857;28;19910;-77
2022/06/12 03:16:27;;;;;;;;;;;15.60;95.20;;;;;;4995108;28;19910;-77
2022/06/12 03:18:56;;;;;;;;;;;15.60;95.20;;;;;;4995040;28;19956;-77
2022/06/12 03:21:34;;;;;;;;;;;15.60;95.40;;;;;;4994963;28;19917;-78
2022/06/12 03:24:19;;;;;;;;;;;15.60;95.00;;;;;;4995125;28;19917;-78
2022/06/12 03:27:04;;;;;;;;;;;15.60;95.30;;;;;;4994955;28;20056;-76
2022/06/12 03:29:43;;;;;;;;;;;15.60;94.90;;;;;;4994686;28;19953;-73
2022/06/12 03:32:21;;;;;;;;;;;15.60;95.30;;;;;;4994802;28;19914;-73
2022/06/12 03:35:00;;;;;;;;;;;15.70;95.60;;;;;;4994245;28;19917;-77
2022/06/12 03:37:27;;;;;;;;;;;15.70;95.80;;;;;;5015312;28;19909;-73
2022/06/12 03:40:16;;;;;;;;;;;15.60;95.80;;;;;;5033938;28;19910;-73
2022/06/12 03:42:54;;;;;;;;;;;15.60;95.20;;;;;;5033726;28;19992;-72
2022/06/12 03:45:23;;;;;;;;;;;15.60;95.30;;;;;;5033792;28;19909;-73
2022/06/12 03:47:57;;;;;;;;;;;15.60;95.50;;;;;;5033650;28;19921;-74
2022/06/12 03:50:24;;;;;;;;;;;15.60;95.60;;;;;;5033753;28;19916;-76
2022/06/12 03:53:16;;;;;;;;;;;15.70;95.30;;;;;;5033648;28;19952;-73
2022/06/12 03:58:40;;;;;;;;;;;15.60;95.50;;;;;;5033927;28;19971;-74
2022/06/12 04:01:07;;;;;;;;;;;15.60;95.40;;;;;;5033543;28;19910;-74
2022/06/12 04:03:40;;;;;;;;;;;15.70;95.60;;;;;;5033439;28;19909;-75
2022/06/12 04:06:12;;;;;;;;;;;15.60;96.00;;;;;;5033684;28;20402;-76
2022/06/12 04:08:40;;;;;;;;;;;15.60;95.30;;;;;;5033736;28;20015;-74
2022/06/12 04:11:08;;;;;;;;;;;15.60;95.60;;;;;;5033658;28;19916;-75
2022/06/12 04:13:38;;;;;;;;;;;15.60;95.60;;;;;;5033286;28;20307;-75
2022/06/12 04:16:08;;;;;;;;;;;15.60;95.60;;;;;;5033425;28;20312;-76
2022/06/12 04:18:35;;;;;;;;;;;15.50;95.30;;;;;;5033362;28;19909;-75
2022/06/12 04:21:04;;;;;;;;;;;15.50;95.40;;;;;;5033392;28;20391;-73
2022/06/12 04:23:30;;;;;;;;;;;15.50;95.70;;;;;;5033123;28;19971;-74
2022/06/12 04:26:03;;;;;;;;;;;15.50;95.70;;;;;;5033147;28;19979;-74
2022/06/12 04:28:32;;;;;;;;;;;15.40;95.70;;;;;;5033305;28;19916;-76
2022/06/12 04:31:00;;;;;;;;;;;15.40;96.20;;;;;;5033753;28;19916;-77
2022/06/12 04:33:37;;;;;;;;;;;15.30;96.30;;;;;;5033604;28;19960;-73
2022/06/12 04:36:04;;;;;;;;;;;15.40;95.90;;;;;;5033653;28;19932;-76
2022/06/12 04:38:32;;;;;;;;;;;15.40;95.80;;;;;;5033189;28;19962;-75
2022/06/12 04:40:59;;;;;;;;;;;15.40;95.90;;;;;;5033019;28;20375;-73
2022/06/12 04:43:26;;;;;;;;;;;15.30;96.10;;;;;;5033024;28;19909;-74
2022/06/12 04:45:53;;;;;;;;;;;15.40;96.40;;;;;;5032947;28;19917;-76
2022/06/12 04:48:25;;;;;;;;;;;15.30;95.70;;;;;;5033268;28;19967;-76
2022/06/12 04:50:51;;;;;;;;;;;15.30;96.20;;;;;;5032991;28;20257;-74
2022/06/12 04:53:19;;;;;;;;;;;15.30;96.20;;;;;;5032852;28;19925;-74
2022/06/12 04:55:45;;;;;;;;;;;15.30;96.50;;;;;;5035916;28;19909;-76
2022/06/12 04:58:12;;;;;;;;;;;15.30;96.40;;;;;;5037109;28;20363;-76
2022/06/12 05:00:39;;;;;;;;;;;15.30;96.60;;;;;;5037114;28;19955;-74
2022/06/12 05:03:06;;;;;;;;;;;15.20;96.50;;;;;;5037090;28;19916;-73
2022/06/12 05:05:32;;;;;;;;;;;15.20;96.20;;;;;;5036660;28;19979;-73
2022/06/12 05:07:59;;;;;;;;;;;15.20;96.60;;;;;;5035697;28;20260;-75
2022/06/12 05:10:26;;;;;;;;;;;15.20;96.60;;;;;;5037038;28;20284;-75
2022/06/12 05:12:53;;;;;;;;;;;15.20;96.50;;;;;;5036867;28;19916;-74
2022/06/12 05:15:20;;;;;;;;;;;15.20;96.60;;;;;;5036756;28;19916;-76
2022/06/12 05:17:47;;;;;;;;;;;15.20;96.80;;;;;;5036507;28;19916;-76
2022/06/12 05:20:16;;;;;;;;;;;15.10;96.80;;;;;;5036428;28;20372;-74
2022/06/12 05:22:43;;;;;;;;;;;15.10;97.20;;;;;;5036691;28;19945;-73
2022/06/12 05:25:10;;;;;;;;;;;15.10;96.50;;;;;;5036702;28;19916;-73
2022/06/12 05:27:37;;;;;;;;;;;15.10;97.00;;;;;;5036315;28;19917;-73
2022/06/12 05:30:06;;;;;;;;;;;15.00;97.40;;;;;;5036582;28;19916;-74
2022/06/12 05:32:34;;;;;;;;;;;14.90;97.10;;;;;;5036232;28;19916;-72
2022/06/12 05:35:01;;;;;;;;;;;14.90;97.00;;;;;;5036230;28;19909;-74
2022/06/12 05:37:27;;;;;;;;;;;15.00;97.40;;;;;;5036485;28;20107;-76
2022/06/12 05:39:54;;;;;;;;;;;15.00;97.20;;;;;;5035865;28;20356;-74
2022/06/12 05:42:21;;;;;;;;;;;14.90;96.90;;;;;;5036194;28;19955;-73
2022/06/12 05:44:48;;;;;;;;;;;14.90;97.00;;;;;;5036306;28;19917;-74
2022/06/12 05:47:14;;;;;;;;;;;14.90;97.40;;;;;;5035950;28;19917;-76
2022/06/12 05:49:41;;;;;;;;;;;14.90;97.20;;;;;;5035747;28;19947;-73
2022/06/12 05:52:08;;;;;;;;;;;14.80;97.40;;;;;;5035594;28;19928;-74
2022/06/12 05:54:35;;;;;;;;;;;14.80;97.70;;;;;;5036050;28;19959;-73
2022/06/12 05:57:01;;;;;;;;;;;14.80;97.60;;;;;;5035999;28;19910;-75
2022/06/12 05:59:28;;;;;;;;;;;14.80;97.60;;;;;;5035866;28;19917;-74
2022/06/12 06:01:55;;;;;;;;;;;14.70;97.80;;;;;;5035784;28;19916;-74
2022/06/12 06:04:22;;;;;;;;;;;14.70;97.90;;;;;;5035601;28;19916;-75
2022/06/12 06:06:53;;;;;;;;;;;14.60;97.80;;;;;;5035208;28;19967;-74
2022/06/12 06:09:20;;;;;;;;;;;14.60;97.90;;;;;;5035678;28;19909;-77
2022/06/12 06:11:47;;;;;;;;;;;14.60;98.10;;;;;;5035627;28;19909;-74
2022/06/12 06:14:15;;;;;;;;;;;14.50;98.10;;;;;;5035649;28;19917;-75
2022/06/12 06:16:42;;;;;;;;;;;14.50;97.80;;;;;;5035480;28;20007;-74
2022/06/12 06:19:09;;;;;;;;;;;14.50;98.10;;;;;;5035299;28;19909;-75
2022/06/12 06:21:36;;;;;;;;;;;14.40;98.30;;;;;;5035231;28;19910;-74
2022/06/12 06:24:03;;;;;;;;;;;14.30;98.20;;;;;;5035491;28;19944;-73
2022/06/12 06:26:30;;;;;;;;;;;14.30;98.00;;;;;;5035336;28;20083;-74
2022/06/12 06:28:57;;;;;;;;;;;14.20;98.40;;;;;;5035245;28;19909;-74
2022/06/12 06:31:23;;;;;;;;;;;14.20;98.40;;;;;;5035336;28;19916;-74
2022/06/12 06:33:51;;;;;;;;;;;14.20;98.80;;;;;;5034880;28;19932;-76
2022/06/12 06:36:18;;;;;;;;;;;14.10;98.60;;;;;;5035092;28;20106;-73
2022/06/12 06:38:45;;;;;;;;;;;14.10;99.30;;;;;;5035159;28;19909;-73
2022/06/12 06:41:14;;;;;;;;;;;14.00;98.80;;;;;;5035202;28;20032;-76
2022/06/12 06:46:26;;;;;;;;;;;13.90;98.80;;;;;;5035284;28;20410;-77
2022/06/12 06:48:52;;;;;;;;;;;13.90;99.00;;;;;;5034701;28;20386;-74
2022/06/12 06:51:19;;;;;;;;;;;13.90;99.20;;;;;;5035039;28;20378;-74
2022/06/12 06:53:46;;;;;;;;;;;13.80;99.20;;;;;;5034599;28;19928;-74
2022/06/12 06:56:13;;;;;;;;;;;13.80;98.90;;;;;;5034841;28;20241;-74
2022/06/12 06:58:40;;;;;;;;;;;13.80;99.00;;;;;;5034753;28;20360;-74
2022/06/12 07:01:07;;;;;;;;;;;13.80;99.30;;;;;;5034815;28;19909;-75
2022/06/12 07:03:34;;;;;;;;;;;13.70;99.10;;;;;;5034588;28;19909;-75
2022/06/12 07:06:02;;;;;;;;;;;13.70;99.60;;;;;;5034637;28;19913;-73
2022/06/12 07:08:29;;;;;;;;;;;13.60;99.10;;;;;;5034467;28;19923;-75
2022/06/12 07:10:56;;;;;;;;;;;13.60;99.20;;;;;;5034340;28;19909;-77
2022/06/12 07:13:23;;;;;;;;;;;13.60;99.50;;;;;;5034429;28;19910;-76
2022/06/12 07:15:50;;;;;;;;;;;13.60;99.60;;;;;;5034188;28;19920;-74
2022/06/12 07:18:18;;;;;;;;;;;13.50;99.50;;;;;;5033580;28;19916;-77
2022/06/12 07:20:48;;;;;;;;;;;13.50;99.70;;;;;;5034474;28;19909;-73
2022/06/12 07:23:17;;;;;;;;;;;13.50;99.90;;;;;;5022239;28;20211;-76
2022/06/12 07:25:46;;;;;;;;;;;13.40;99.90;;;;;;4994561;28;20285;-78
2022/06/12 07:28:12;;;;;;;;;;;13.40;99.90;;;;;;4994818;28;19914;-77
2022/06/12 07:30:39;;;;;;;;;;;13.40;99.90;;;;;;4994736;28;19909;-78
2022/06/12 07:33:07;;;;;;;;;;;13.30;99.90;;;;;;4994047;28;19909;-77
2022/06/12 07:35:34;;;;;;;;;;;13.30;99.90;;;;;;4994109;28;19917;-77
2022/06/12 07:38:01;;;;;;;;;;;13.30;99.90;;;;;;4994489;28;19910;-77
2022/06/12 07:40:31;;;;;;;;;;;13.30;99.90;;;;;;4994722;28;19913;-74
2022/06/12 07:42:58;;;;;;;;;;;13.20;99.90;;;;;;4994582;28;19960;-75
2022/06/12 07:45:25;;;;;;;;;;;13.20;99.90;;;;;;4994705;28;19916;-77
2022/06/12 07:47:52;;;;;;;;;;;13.20;99.90;;;;;;4992100;28;20431;-77
2022/06/12 07:50:19;;;;;;;;;;;13.20;99.90;;;;;;4992180;28;19924;-74
2022/06/12 07:52:45;;;;;;;;;;;13.20;99.90;;;;;;4992040;28;20317;-75
2022/06/12 07:55:14;;;;;;;;;;;13.30;99.90;;;;;;4992077;28;19921;-77
2022/06/12 07:57:41;;;;;;;;;;;13.20;99.90;;;;;;4992024;28;20345;-76
2022/06/12 08:00:08;;;;;;;;;;;13.20;99.90;;;;;;4992265;28;19914;-76
2022/06/12 08:02:35;;;;;;;;;;;13.20;99.90;;;;;;4991225;28;19909;-74
2022/06/12 08:05:02;;;;;;;;;;;13.10;99.90;;;;;;4992146;28;19909;-78
2022/06/12 08:07:29;;;;;;;;;;;13.10;99.90;;;;;;4991941;28;19918;-76
2022/06/12 08:09:55;;;;;;;;;;;13.10;99.90;;;;;;4991533;28;19910;-75
2022/06/12 08:12:22;;;;;;;;;;;13.10;99.90;;;;;;4991793;28;19980;-76
2022/06/12 08:14:49;;;;;;;;;;;13.00;99.90;;;;;;4991490;28;19914;-74
2022/06/12 08:17:16;;;;;;;;;;;13.00;99.90;;;;;;4991200;28;20341;-76
2022/06/12 08:22:27;;;;;;;;;;;13.00;99.90;;;;;;4992235;28;20359;-77
2022/06/12 08:24:53;;;;;;;;;;;12.90;99.90;;;;;;4991711;28;19960;-78
2022/06/12 08:27:20;;;;;;;;;;;12.90;99.90;;;;;;4991097;28;19918;-77
2022/06/12 08:29:48;;;;;;;;;;;12.90;99.90;;;;;;4991578;28;19910;-77
2022/06/12 08:32:19;;;;;;;;;;;12.90;99.90;;;;;;4991013;28;20029;-76
2022/06/12 08:34:56;;;;;;;;;;;12.80;99.90;;;;;;4991988;28;19956;-77
2022/06/12 08:37:25;;;;;;;;;;;12.90;99.90;;;;;;4991826;28;19964;-77
2022/06/12 08:39:52;;;;;;;;;;;12.90;99.90;;;;;;4991921;28;19914;-78
2022/06/12 08:42:25;;;;;;;;;;;12.90;99.90;;;;;;4991376;28;19976;-78
2022/06/12 08:45:10;;;;;;;;;;;12.80;99.90;;;;;;4991869;28;19914;-78
2022/06/12 08:47:55;;;;;;;;;;;12.80;99.90;;;;;;4990795;28;19954;-76
2022/06/12 08:50:27;;;;;;;;;;;12.80;99.90;;;;;;4991756;28;20361;-75
2022/06/12 08:52:58;;;;;;;;;;;12.80;99.90;;;;;;4991494;28;19921;-76
2022/06/12 08:55:35;;;;;;;;;;;12.70;99.90;;;;;;4991463;28;19917;-78
2022/06/12 08:58:20;;;;;;;;;;;12.70;99.90;;;;;;4991640;28;19914;-77
2022/06/12 09:00:47;;;;;;;;;;;12.70;99.90;;;;;;4991098;28;19953;-76
2022/06/12 09:03:16;;;;;;;;;;;12.60;99.90;;;;;;4991203;28;19920;-77
2022/06/12 09:05:46;;;;;;;;;;;12.60;99.90;;;;;;4993226;28;19909;-76
2022/06/12 09:08:31;;;;;;;;;;;12.60;99.90;;;;;;4993231;28;19921;-78
2022/06/12 09:11:18;;;;;;;;;;;12.50;99.90;;;;;;4993106;28;19910;-76
2022/06/12 09:13:59;;;;;;;;;;;12.50;99.90;;;;;;4993308;28;19944;-78
2022/06/12 09:16:44;;;;;;;;;;;12.50;99.90;;;;;;4993779;28;20440;-77
2022/06/12 09:19:16;;;;;;;;;;;12.50;99.90;;;;;;4993482;28;19976;-78
2022/06/12 09:21:58;;;;;;;;;;;12.40;99.90;;;;;;4993366;28;19910;-78
2022/06/12 09:24:44;;;;;;;;;;;12.50;99.90;;;;;;4993727;28;19916;-77
2022/06/12 09:27:17;;;;;;;;;;;12.50;99.90;;;;;;4993489;28;20439;-78
2022/06/12 09:30:02;;;;;;;;;;;12.50;99.90;;;;;;4993489;28;19910;-77
2022/06/12 09:32:41;;;;;;;;;;;12.40;99.90;;;;;;4993798;28;19918;-77
2022/06/12 09:35:26;;;;;;;;;;;12.40;99.90;;;;;;4993521;28;19973;-76
2022/06/12 09:38:18;;;;;;;;;;;12.40;99.90;;;;;;4993325;28;20281;-78
2022/06/12 09:41:03;;;;;;;;;;;12.30;99.90;;;;;;4988449;28;19910;-78
2022/06/12 09:43:36;;;;;;;;;;;12.30;99.90;;;;;;4996781;28;20377;-77
2022/06/12 09:46:03;;;;;;;;;;;12.30;99.90;;;;;;4996762;28;19917;-77
2022/06/12 09:48:52;;;;;;;;;;;12.30;99.90;;;;;;4996925;28;19960;-77
2022/06/12 09:51:40;;;;;;;;;;;12.20;99.90;;;;;;4997089;28;19910;-77
2022/06/12 09:54:22;;;;;;;;;;;12.20;99.90;;;;;;4996478;28;19932;-77
2022/06/12 09:57:09;;;;;;;;;;;12.20;99.90;;;;;;4996975;28;19914;-78
2022/06/12 09:59:39;;;;;;;;;;;12.20;99.90;;;;;;4989332;28;19941;-77
2022/06/12 10:02:19;;;;;;;;;;;12.20;99.90;;;;;;4995722;28;20202;-76
2022/06/12 10:04:56;;;;;;;;;;;12.10;99.90;;;;;;4996593;28;19997;-78
2022/06/12 10:07:49;;;;;;;;;;;12.10;99.90;;;;;;4996531;28;19924;-76
2022/06/12 10:10:28;;;;;;;;;;;12.10;99.90;;;;;;4980481;28;19916;-76
2022/06/12 10:12:58;;;;;;;;;;;12.00;99.90;;;;;;4996439;28;19937;-77
2022/06/12 10:15:31;;;;;;;;;;;12.00;99.90;;;;;;4996086;28;20353;-77
2022/06/12 10:18:03;;;;;;;;;;;11.90;99.90;;;;;;4996191;28;19921;-78
2022/06/12 10:20:32;;;;;;;;;;;11.90;99.90;;;;;;4996449;28;20676;-77
2022/06/12 10:22:59;;;;;;;;;;;11.90;99.90;;;;;;4996380;28;19910;-77
2022/06/12 10:25:33;;;;;;;;;;;11.90;99.90;;;;;;4995893;28;19948;-78
2022/06/12 10:28:11;;;;;;;;;;;11.90;99.90;;;;;;4996076;28;19971;-78
2022/06/12 10:30:42;;;;;;;;;;;11.90;99.90;;;;;;4995857;28;19914;-77
2022/06/12 10:33:37;;;;;;;;;;;11.80;99.90;;;;;;4996014;28;19913;-77
2022/06/12 10:36:08;;;;;;;;;;;11.70;99.90;;;;;;4987601;28;19932;-77
2022/06/12 10:38:36;;;;;;;;;;;11.80;99.90;;;;;;4995314;28;19910;-75
2022/06/12 10:41:07;;;;;;;;;;;11.70;99.90;;;;;;4995909;28;19957;-77
2022/06/12 10:43:34;;;;;;;;;;;11.70;99.90;;;;;;4995860;28;20285;-77
2022/06/12 10:46:06;;;;;;;;;;;11.70;99.90;;;;;;4995784;28;19950;-76
2022/06/12 10:48:35;;;;;;;;;;;11.70;99.90;;;;;;4995751;28;19913;-78
2022/06/12 10:51:05;;;;;;;;;;;11.70;99.90;;;;;;4995731;28;20320;-78
2022/06/12 10:53:33;;;;;;;;;;;11.70;99.90;;;;;;4993818;28;19925;-78
2022/06/12 10:56:08;;;;;;;;;;;11.70;99.90;;;;;;4995641;28;20357;-79
2022/06/12 10:58:51;;;;;;;;;;;11.70;99.90;;;;;;4995694;28;19910;-74
2022/06/12 11:01:21;;;;;;;;;;;11.70;99.90;;;;;;4995504;28;20345;-77
2022/06/12 11:03:50;;;;;;;;;;;11.70;99.90;;;;;;4995155;28;19910;-74
2022/06/12 11:06:22;;;;;;;;;;;11.70;99.90;;;;;;4995290;28;19917;-76
2022/06/12 11:09:19;;;;;;;;;;;11.60;99.90;;;;;;4994887;28;19993;-77
2022/06/12 11:12:02;;;;;;;;;;;11.70;99.90;;;;;;4959403;28;19910;-76
2022/06/12 11:14:42;;;;;;;;;;;11.70;99.90;;;;;;4995162;28;20258;-77
2022/06/12 11:17:20;;;;;;;;;;;11.60;99.90;;;;;;4995139;28;19960;-77
2022/06/12 11:19:59;;;;;;;;;;;11.60;99.90;;;;;;4995684;28;19910;-77
2022/06/12 11:22:49;;;;;;;;;;;11.60;99.90;;;;;;5010240;28;20283;-74
2022/06/12 11:25:25;;;;;;;;;;;11.60;99.90;;;;;;4994460;28;20012;-77
2022/06/12 11:28:00;;;;;;;;;;;11.60;99.90;;;;;;4994689;28;19918;-76
2022/06/12 11:30:27;;;;;;;;;;;11.70;99.90;;;;;;4995320;28;20284;-76
2022/06/12 11:32:59;;;;;;;;;;;11.70;99.90;;;;;;4994749;28;19914;-76
2022/06/12 11:35:26;;;;;;;;;;;11.70;99.90;;;;;;4994774;28;20380;-76
2022/06/12 11:37:53;;;;;;;;;;;11.70;99.90;;;;;;4994653;28;20484;-75
2022/06/12 11:40:40;;;;;;;;;;;11.70;99.90;;;;;;4994326;28;19910;-77
2022/06/12 11:43:29;;;;;;;;;;;11.70;99.90;;;;;;4987674;28;19909;-75
2022/06/12 11:46:05;;;;;;;;;;;11.60;99.90;;;;;;4994774;28;20268;-75
2022/06/12 11:48:34;;;;;;;;;;;11.60;99.90;;;;;;4994629;28;19913;-75
2022/06/12 11:51:16;;;;;;;;;;;11.60;99.90;;;;;;4994652;28;19992;-74
2022/06/12 11:54:06;;;;;;;;;;;11.60;99.90;;;;;;4994109;28;20304;-76
2022/06/12 11:56:51;;;;;;;;;;;11.60;99.90;;;;;;4989101;28;19910;-75
2022/06/12 11:59:24;;;;;;;;;;;11.60;99.90;;;;;;4994676;28;20113;-76
2022/06/12 12:01:57;;;;;;;;;;;11.60;99.90;;;;;;4994236;28;19913;-76
2022/06/12 12:04:27;;;;;;;;;;;11.60;99.90;;;;;;4994299;28;20280;-76
2022/06/12 12:07:05;;;;;;;;;;;11.60;99.90;;;;;;4994822;28;19917;-73
2022/06/12 12:09:50;;;;;;;;;;;11.50;99.90;;;;;;4994876;28;20262;-72
2022/06/12 12:12:19;;;;;;;;;;;11.60;99.90;;;;;;4995050;28;20400;-72
2022/06/12 12:14:47;;;;;;;;;;;11.60;99.90;;;;;;4994338;28;19937;-72
2022/06/12 12:17:18;;;;;;;;;;;11.60;99.90;;;;;;4994317;28;20281;-74
2022/06/12 12:19:44;;;;;;;;;;;11.60;99.90;;;;;;4994117;28;19910;-74
2022/06/12 12:22:16;;;;;;;;;;;11.60;99.90;;;;;;4994171;28;19970;-72
2022/06/12 12:24:50;;;;;;;;;;;11.60;99.90;;;;;;4994165;28;19957;-73
2022/06/12 12:27:27;;;;;;;;;;;11.50;99.90;;;;;;4994015;28;20369;-73
2022/06/12 12:29:55;;;;;;;;;;;11.50;99.90;;;;;;4993708;28;19917;-73
2022/06/12 12:32:22;;;;;;;;;;;11.50;99.90;;;;;;4993952;28;20321;-72
2022/06/12 12:34:51;;;;;;;;;;;11.50;99.90;;;;;;4993887;28;19914;-73
2022/06/12 12:42:47;;;;;;;;;;;11.50;99.90;;;;;;4994102;28;20384;-74
2022/06/12 12:45:23;;;;;;;;;;;11.50;99.90;;;;;;4993719;28;19917;-72
2022/06/12 12:48:04;;;;;;;;;;;11.40;99.90;;;;;;4993220;28;20373;-73
2022/06/12 12:50:42;;;;;;;;;;;11.40;99.90;;;;;;4993658;28;19916;-74
2022/06/12 12:53:19;;;;;;;;;;;11.40;99.90;;;;;;4993592;28;19932;-78
2022/06/12 12:55:45;;;;;;;;;;;11.40;99.90;;;;;;4993597;28;20357;-77
2022/06/12 12:58:15;;;;;;;;;;;11.40;99.90;;;;;;4993705;28;19916;-77
2022/06/12 13:00:42;;;;;;;;;;;11.40;99.90;;;;;;4993745;28;19957;-74
2022/06/12 13:03:09;;;;;;;;;;;11.40;99.90;;;;;;4993594;28;19910;-78
2022/06/12 13:05:41;;;;;;;;;;;11.40;99.90;;;;;;4993436;28;19917;-78
2022/06/12 13:08:30;;;;;;;;;;;11.40;99.90;;;;;;4993649;28;19922;-76
2022/06/12 13:10:57;;;;;;;;;;;11.40;99.90;;;;;;4993658;28;19932;-76
2022/06/12 13:13:26;;;;;;;;;;;11.40;99.90;;;;;;4993737;28;20272;-73
2022/06/12 13:16:11;;;;;;;;;;;11.40;99.90;;;;;;5009755;28;20013;-72
2022/06/12 13:18:51;;;;;;;;;;;11.40;99.90;;;;;;4997476;28;19917;-73
2022/06/12 13:21:36;;;;;;;;;;;11.30;99.90;;;;;;4997494;28;19914;-75
2022/06/12 13:24:20;;;;;;;;;;;11.40;99.90;;;;;;4997346;28;19910;-75
2022/06/12 13:26:47;;;;;;;;;;;11.40;99.90;;;;;;4997295;28;19984;-74
2022/06/12 13:29:15;;;;;;;;;;;11.40;99.90;;;;;;4997292;28;19910;-74
2022/06/12 13:31:52;;;;;;;;;;;11.30;99.90;;;;;;4996801;28;20437;-73
2022/06/12 13:34:19;;;;;;;;;;;11.30;99.90;;;;;;4997119;28;19921;-73
2022/06/12 13:36:45;;;;;;;;;;;11.30;99.90;;;;;;4997133;28;19910;-74
2022/06/12 13:39:29;;;;;;;;;;;11.30;99.90;;;;;;4997114;28;20002;-75
2022/06/12 13:41:58;;;;;;;;;;;11.30;99.90;;;;;;4997057;28;19909;-75
2022/06/12 13:44:33;;;;;;;;;;;11.30;99.90;;;;;;4996758;28;19917;-73
2022/06/12 13:47:15;;;;;;;;;;;11.30;99.90;;;;;;4996641;28;19918;-74
2022/06/12 13:49:44;;;;;;;;;;;11.30;99.90;;;;;;4996874;28;19910;-74
2022/06/12 13:52:11;;;;;;;;;;;11.30;99.90;;;;;;4996664;28;19921;-74
2022/06/12 13:54:41;;;;;;;;;;;11.20;99.90;;;;;;4996889;28;19980;-75
2022/06/12 13:57:12;;;;;;;;;;;11.20;99.90;;;;;;4996818;28;20285;-74
2022/06/12 13:59:42;;;;;;;;;;;11.30;99.90;;;;;;4996400;28;19916;-74
2022/06/12 14:02:17;;;;;;;;;;;11.30;99.90;;;;;;4996776;28;20029;-74
2022/06/12 14:04:54;;;;;;;;;;;11.30;99.90;;;;;;4996654;28;19945;-76
2022/06/12 14:07:22;;;;;;;;;;;11.20;99.90;;;;;;5001629;28;20351;-75
2022/06/12 14:09:53;;;;;;;;;;;11.20;99.90;;;;;;5015816;28;20395;-74
2022/06/12 14:12:19;;;;;;;;;;;11.20;99.90;;;;;;5016115;28;19909;-73
2022/06/12 14:14:48;;;;;;;;;;;11.20;99.90;;;;;;5016089;28;19913;-74
2022/06/12 14:17:31;;;;;;;;;;;11.30;99.90;;;;;;5015957;28;19910;-74
2022/06/12 14:19:59;;;;;;;;;;;11.20;99.90;;;;;;5016234;28;19909;-75
2022/06/12 14:22:26;;;;;;;;;;;11.20;99.90;;;;;;5015906;28;20284;-75
2022/06/12 14:25:01;;;;;;;;;;;11.20;99.90;;;;;;5015730;28;19992;-75
2022/06/12 14:27:38;;;;;;;;;;;11.10;99.90;;;;;;5015620;28;20419;-76
2022/06/12 14:30:07;;;;;;;;;;;11.20;99.90;;;;;;5015791;28;19909;-74
2022/06/12 14:32:43;;;;;;;;;;;11.10;99.90;;;;;;5015765;28;19909;-75
2022/06/12 14:35:10;;;;;;;;;;;11.10;99.90;;;;;;5015746;28;20013;-74
2022/06/12 14:37:41;;;;;;;;;;;11.10;99.90;;;;;;5015391;28;20272;-74
2022/06/12 14:40:23;;;;;;;;;;;11.10;99.90;;;;;;5015584;28;19913;-73
2022/06/12 14:43:13;;;;;;;;;;;11.10;99.90;;;;;;5015522;28;19957;-74
2022/06/12 14:45:54;;;;;;;;;;;11.10;99.90;;;;;;5012232;28;19948;-75
2022/06/12 14:48:26;;;;;;;;;;;11.10;99.90;;;;;;5015329;28;20004;-74
2022/06/12 14:50:54;;;;;;;;;;;11.10;99.90;;;;;;5015316;28;19909;-74
2022/06/12 14:53:21;;;;;;;;;;;11.10;99.90;;;;;;5015203;28;19921;-75
2022/06/12 14:55:48;;;;;;;;;;;11.10;99.90;;;;;;5015120;28;20289;-75
2022/06/12 14:58:24;;;;;;;;;;;11.20;99.90;;;;;;5015223;28;19909;-75
2022/06/12 15:00:51;;;;;;;;;;;11.20;99.90;;;;;;5015010;28;20000;-74